Ezerelis, Lithuania

8:16 PM EEST on July 20, 2018 (GMT +0300)
Kaunas International | | Change Station

Elev 253 ft 54.88 °N, 23.83 °E | Updated 26 minutes ago

Partly Cloudy
Partly Cloudy
72 °F
Feels Like 72 °F
N
6
Wind Variable Wind from WNW

Today
High -- | Low -- °F
--% Chance of Precip.
Yesterday
High -- | Low -- °F
Precip. -- in
Pressure 29.74 in
Visibility 6.2 miles
Clouds Few 3500 ft
Mostly Cloudy 11000 ft
Dew Point 63 °F
Humidity 73%
Rainfall 0.00 in
Snow Depth Not available.
5:14 AM 9:48 PM
First Quarter, 59% visible
METAR EYKA 201650Z 30005KT 260V360 9999 FEW035CB BKN110 22/17 Q1007
Pressure 29.74 in
Visibility 6.2 miles
Clouds Few 3500 ft
Mostly Cloudy 11000 ft
Dew Point 63 °F
Humidity 73%
Rainfall 0.00 in
Snow Depth Not available.
5:14 AM 9:48 PM
First Quarter, 59% visible
METAR EYKA 201650Z 30005KT 260V360 9999 FEW035CB BKN110 22/17 Q1007

Get Severe Weather Alerts

Thanks for signing up!

Be on the lookout for a verification email in your inbox.

You'll start receiving the daily forecast at 6 AM.

×

10-Day Weather Forecast

×

Almanac

Astronomy

Jul. 20, 2018 Rise Set
Actual Time
Civil Twilight
Nautical Twilight
Astronomical Twilight
Moon
Length of Visible Light
Length of Day
Tomorrow will be .
, % of the Moon is Illuminated

Today's Extremes

Country Highs Country Lows

Community

WunderPhotos

Category 6

Welcome to Category 6. This is the collective home for Weather Underground's featured writeups by Dr. Jeff Masters (right), Bob Henson (left), Chris Burt, and other regular contributors.

Nearby

Air Quality

  Air Quality AQ Index Pollutant
Not available.

Snow Depth

Station Depth Elevation

Earthquake Activity

City Distance Mag. Time & Date
Minimum magnitude displayed is 2.5.

Coastal Water Temperatures

Place Temperature

Stations

Nearby Weather Stations

Station Location Temp. Windchill Dew Point Humidity Wind Precip. Elev Updated Type